Time;durP1;ratioP1;P1;durP2;ratioP2;P2;SDS_P1;SDS_P2;PMS_P1;PMS_P2;Temp;Humidity;BMP_temperature;BMP_pressure;BME280_temperature;BME280_humidity;BME280_pressure;Samples;Min_cycle;Max_cycle;Signal;HPM_P1;HPM_P2
2022/03/17 00:01:12;;;;;;;37.28;20.45;;;;;;;10.92;82.73;101702.19;5080820;28;20033;-49
2022/03/17 00:03:38;;;;;;;35.38;19.75;;;;;;;10.94;83.15;101705.56;5073769;28;20097;-48
2022/03/17 00:06:05;;;;;;;36.53;20.13;;;;;;;10.86;83.47;101714.47;5068024;28;20029;-47
2022/03/17 00:08:30;;;;;;;38.90;20.33;;;;;;;10.89;83.63;101710.59;5061722;28;20059;-50
2022/03/17 00:10:56;;;;;;;44.67;20.23;;;;;;;10.93;83.57;101711.97;5071607;28;20291;-48
2022/03/17 00:13:21;;;;;;;40.00;21.10;;;;;;;11.01;83.50;101712.00;5071942;28;20036;-48
2022/03/17 00:15:47;;;;;;;38.15;21.55;;;;;;;10.94;83.54;101719.88;5072422;28;20017;-50
2022/03/17 00:18:12;;;;;;;39.35;22.27;;;;;;;10.86;83.99;101719.84;5071952;28;20024;-46
2022/03/17 00:20:39;;;;;;;42.78;22.63;;;;;;;10.83;84.84;101717.47;5072178;28;20052;-50
2022/03/17 00:23:05;;;;;;;42.55;23.00;;;;;;;10.81;85.33;101729.44;5060808;28;20037;-46
2022/03/17 00:25:31;;;;;;;41.65;23.15;;;;;;;10.82;85.30;101721.19;5069861;28;20132;-49
2022/03/17 00:27:57;;;;;;;46.05;23.55;;;;;;;10.82;85.68;101721.19;5055424;28;20009;-47
2022/03/17 00:30:23;;;;;;;44.90;23.92;;;;;;;10.84;86.06;101726.41;5072402;28;20033;-44
2022/03/17 00:32:48;;;;;;;45.08;24.73;;;;;;;10.85;86.12;101720.88;5072329;28;20037;-48
2022/03/17 00:37:57;;;;;;;54.08;27.85;;;;;;;10.82;87.12;101731.09;5073551;28;20078;-46
2022/03/17 00:40:23;;;;;;;55.05;28.95;;;;;;;10.77;87.89;101729.75;5073296;28;20049;-46
2022/03/17 00:42:49;;;;;;;62.22;30.77;;;;;;;10.73;88.94;101722.16;5073124;28;20113;-44
2022/03/17 00:45:14;;;;;;;55.58;29.80;;;;;;;10.67;89.77;101734.41;5074057;28;20044;-45
2022/03/17 00:47:40;;;;;;;57.90;31.27;;;;;;;10.64;90.29;101723.97;5071984;28;20017;-48
2022/03/17 00:50:07;;;;;;;57.63;31.23;;;;;;;10.60;91.28;101725.28;5064922;28;20042;-47
2022/03/17 00:52:32;;;;;;;65.95;33.88;;;;;;;10.56;91.93;101737.41;5071919;28;20036;-48
2022/03/17 00:54:58;;;;;;;76.63;36.42;;;;;;;10.53;92.26;101745.75;5073517;28;20036;-49
2022/03/17 00:57:24;;;;;;;76.78;34.55;;;;;;;10.52;93.30;101741.41;5072826;28;20036;-47
2022/03/17 00:59:49;;;;;;;71.90;37.40;;;;;;;10.43;94.37;101736.97;5065494;28;20021;-47
2022/03/17 01:02:15;;;;;;;79.97;39.47;;;;;;;10.37;95.45;101733.06;5052641;28;20044;-46
2022/03/17 01:04:40;;;;;;;79.68;40.15;;;;;;;10.31;96.33;101737.22;5048308;28;20059;-44
2022/03/17 01:07:06;;;;;;;82.50;41.25;;;;;;;10.23;97.33;101747.91;5049588;28;20515;-44
2022/03/17 01:09:32;;;;;;;85.88;41.55;;;;;;;10.15;97.99;101742.47;5050608;28;20052;-49
2022/03/17 01:12:03;;;;;;;82.97;41.53;;;;;;;10.14;98.66;101753.38;5050184;28;20478;-51
2022/03/17 01:14:28;;;;;;;92.13;44.47;;;;;;;10.09;98.88;101756.56;5030512;28;20024;-46
2022/03/17 01:16:54;;;;;;;93.40;43.00;;;;;;;10.08;99.35;101757.53;5049750;28;20045;-46
2022/03/17 01:19:19;;;;;;;94.53;45.50;;;;;;;10.06;99.73;101771.16;5051526;28;20032;-49
2022/03/17 01:21:46;;;;;;;91.32;44.17;;;;;;;9.99;100.00;101761.19;5056908;28;20037;-50
2022/03/17 01:24:11;;;;;;;93.32;43.10;;;;;;;9.97;100.00;101755.94;5053458;28;20093;-50
2022/03/17 01:26:37;;;;;;;98.05;46.20;;;;;;;9.95;100.00;101768.69;5044005;28;20085;-47
2022/03/17 01:29:02;;;;;;;103.65;47.90;;;;;;;9.94;100.00;101776.94;5054247;28;20392;-52
2022/03/17 01:31:29;;;;;;;98.68;45.13;;;;;;;9.89;100.00;101778.22;5037965;28;20083;-48
2022/03/17 01:33:54;;;;;;;88.25;41.17;;;;;;;9.82;100.00;101798.69;5056653;28;20108;-52
2022/03/17 01:36:19;;;;;;;84.32;40.65;;;;;;;9.84;100.00;101799.34;5063842;28;20134;-50
2022/03/17 01:38:45;;;;;;;55.03;28.10;;;;;;;9.59;100.00;101810.88;5059809;28;20093;-49
2022/03/17 01:41:10;;;;;;;55.42;26.55;;;;;;;9.54;100.00;101813.16;5053988;28;20021;-47
2022/03/17 01:43:35;;;;;;;57.53;26.48;;;;;;;9.48;100.00;101821.81;5069452;28;20044;-48
2022/03/17 01:46:01;;;;;;;56.00;27.60;;;;;;;9.43;100.00;101830.34;5068691;28;20092;-48
2022/03/17 01:48:26;;;;;;;45.00;23.27;;;;;;;9.27;100.00;101841.75;5070561;28;20033;-48
2022/03/17 01:50:53;;;;;;;45.22;18.50;;;;;;;8.93;100.00;101861.09;5051548;28;20037;-50
2022/03/17 01:53:19;;;;;;;34.67;14.32;;;;;;;8.82;100.00;101858.59;5035904;28;20500;-46
2022/03/17 01:55:44;;;;;;;35.05;11.68;;;;;;;8.70;99.65;101865.97;5052618;28;20488;-49
2022/03/17 01:58:10;;;;;;;30.65;10.30;;;;;;;8.54;98.80;101863.88;5052966;28;20021;-47
2022/03/17 02:00:37;;;;;;;37.85;11.07;;;;;;;8.42;98.26;101854.28;5038172;28;20029;-51
2022/03/17 02:03:04;;;;;;;27.90;11.35;;;;;;;8.35;97.99;101877.28;5052648;28;20025;-48
2022/03/17 02:05:29;;;;;;;38.85;11.20;;;;;;;8.32;97.77;101888.28;5052979;28;20016;-51
2022/03/17 02:07:55;;;;;;;33.13;10.88;;;;;;;8.28;98.19;101890.41;5054066;28;20049;-51
2022/03/17 02:10:22;;;;;;;38.80;10.98;;;;;;;8.25;97.99;101881.78;5052383;28;20051;-51
2022/03/17 02:15:34;;;;;;;33.92;10.65;;;;;;;8.11;97.96;101889.28;5037662;28;20045;-51
2022/03/17 02:18:02;;;;;;;28.50;11.95;;;;;;;8.03;98.17;101894.50;5041553;28;20033;-49
2022/03/17 02:20:27;;;;;;;35.55;11.50;;;;;;;7.98;98.50;101896.75;5056887;28;20033;-49
2022/03/17 02:22:54;;;;;;;30.90;12.85;;;;;;;7.98;98.31;101896.75;5053522;28;20083;-49
2022/03/17 02:25:34;;;;;;;31.45;12.35;;;;;;;7.93;98.78;101908.88;5053515;28;20090;-47
2022/03/17 02:28:02;;;;;;;36.42;13.95;;;;;;;7.88;99.00;101911.97;5051607;28;20759;-46
2022/03/17 02:30:29;;;;;;;37.38;14.77;;;;;;;7.90;98.98;101915.34;5051923;28;20056;-49
2022/03/17 02:32:59;;;;;;;43.80;16.10;;;;;;;7.84;99.11;101915.88;5052635;28;20087;-47
2022/03/17 02:35:25;;;;;;;40.80;16.33;;;;;;;7.87;99.04;101918.28;5057788;28;20047;-51
2022/03/17 02:37:51;;;;;;;50.00;17.15;;;;;;;7.88;98.81;101933.41;5061372;28;20037;-50
2022/03/17 02:40:16;;;;;;;51.97;15.07;;;;;;;7.79;98.32;101937.72;5064395;28;20036;-50
2022/03/17 02:42:42;;;;;;;39.38;15.07;;;;;;;7.82;98.42;101944.66;5065772;28;20029;-48
2022/03/17 02:45:10;;;;;;;40.20;15.52;;;;;;;7.81;98.10;101942.97;5049853;28;20053;-51
2022/03/17 02:47:37;;;;;;;42.33;14.50;;;;;;;7.83;98.00;101939.16;5056018;28;20037;-51
2022/03/17 02:50:03;;;;;;;32.83;14.05;;;;;;;7.86;97.69;101951.44;5060909;28;20025;-51
2022/03/17 02:52:29;;;;;;;47.40;14.93;;;;;;;7.86;97.89;101954.13;5042031;28;20033;-51
2022/03/17 02:54:55;;;;;;;45.30;15.00;;;;;;;7.88;97.59;101966.41;5046967;28;20077;-49
2022/03/17 02:57:20;;;;;;;42.90;16.50;;;;;;;7.90;97.64;101966.28;5062405;28;20029;-50
2022/03/17 02:59:49;;;;;;;41.80;13.82;;;;;;;7.85;97.25;101979.25;5064250;28;20107;-51
2022/03/17 03:02:18;;;;;;;37.15;13.98;;;;;;;7.86;96.88;101986.28;5064252;28;20039;-50
2022/03/17 03:04:43;;;;;;;29.77;11.65;;;;;;;7.82;95.67;101984.84;5061643;28;20067;-50
2022/03/17 03:07:09;;;;;;;34.88;10.93;;;;;;;7.83;95.92;101994.59;5112571;22;20053;-46
2022/03/17 03:09:35;;;;;;;34.45;10.20;;;;;;;7.86;96.21;102010.41;5067786;28;20394;-45
2022/03/17 03:12:00;;;;;;;31.10;6.82;;;;;;;7.77;95.71;102017.44;5068750;28;20043;-45
2022/03/17 03:14:26;;;;;;;36.58;6.93;;;;;;;7.78;94.81;102012.91;5072446;28;20029;-45
2022/03/17 03:16:52;;;;;;;41.65;5.80;;;;;;;7.75;94.89;102019.41;5071615;28;20058;-45
2022/03/17 03:19:17;;;;;;;36.80;5.22;;;;;;;7.69;94.57;102031.50;5072115;28;20052;-47
2022/03/17 03:21:45;;;;;;;28.35;3.85;;;;;;;7.66;93.79;102025.53;5071928;28;20458;-45
2022/03/17 03:24:12;;;;;;;34.15;4.13;;;;;;;7.62;93.16;102050.94;5065838;28;20426;-47
2022/03/17 03:26:37;;;;;;;28.75;4.15;;;;;;;7.58;92.81;102063.75;5071299;28;20115;-47
2022/03/17 03:29:08;;;;;;;36.63;5.20;;;;;;;7.60;92.45;102059.09;5072272;28;20111;-46
2022/03/17 03:31:34;;;;;;;34.72;5.45;;;;;;;7.60;92.32;102072.47;5071848;28;20028;-46
2022/03/17 03:34:00;;;;;;;17.02;3.38;;;;;;;7.62;92.54;102081.25;5071537;28;20039;-45
2022/03/17 03:39:09;;;;;;;26.27;4.57;;;;;;;7.60;91.37;102101.94;5064006;28;20047;-46
2022/03/17 03:41:34;;;;;;;37.58;3.90;;;;;;;7.59;91.82;102110.13;5071517;28;20033;-45
2022/03/17 03:44:00;;;;;;;29.65;3.05;;;;;;;7.59;92.13;102097.59;5071938;28;20036;-46
2022/03/17 03:46:26;;;;;;;26.55;3.10;;;;;;;7.56;91.79;102111.25;5066298;28;20037;-47
2022/03/17 03:48:52;;;;;;;27.00;2.70;;;;;;;7.59;91.52;102105.63;5071222;28;20143;-46
2022/03/17 03:51:17;;;;;;;26.92;2.53;;;;;;;7.60;90.71;102110.00;5070264;28;20352;-46
2022/03/17 03:56:26;;;;;;;31.55;3.10;;;;;;;7.55;90.43;102125.59;5067982;28;20039;-47
2022/03/17 03:58:52;;;;;;;28.63;2.95;;;;;;;7.48;89.95;102127.97;5070414;28;20025;-47
2022/03/17 04:01:18;;;;;;;39.10;2.75;;;;;;;7.45;90.38;102132.72;5069987;28;20408;-48
2022/03/17 04:03:44;;;;;;;30.95;2.97;;;;;;;7.41;89.76;102152.72;5069621;28;20028;-46
2022/03/17 04:06:10;;;;;;;17.75;2.13;;;;;;;7.41;89.39;102156.25;5067778;28;20399;-45
2022/03/17 04:08:35;;;;;;;18.35;2.50;;;;;;;7.41;89.49;102168.81;5049548;28;20048;-47
2022/03/17 04:11:00;;;;;;;20.35;2.42;;;;;;;7.44;89.13;102171.22;5049723;28;20032;-47
2022/03/17 04:13:26;;;;;;;26.10;3.05;;;;;;;7.44;89.01;102181.94;5049908;28;20029;-45
2022/03/17 04:15:51;;;;;;;13.80;2.40;;;;;;;7.47;89.52;102197.75;5049955;28;20029;-47
2022/03/17 04:18:16;;;;;;;25.80;2.72;;;;;;;7.40;88.48;102186.72;5049397;28;20114;-46
2022/03/17 04:20:42;;;;;;;18.52;1.95;;;;;;;7.43;87.75;102207.03;5049651;28;20021;-45
2022/03/17 04:23:07;;;;;;;16.33;1.50;;;;;;;7.39;86.89;102210.94;5049876;28;20507;-46
2022/03/17 04:25:32;;;;;;;20.42;1.92;;;;;;;7.33;86.29;102216.81;5050106;28;20063;-47
2022/03/17 04:27:58;;;;;;;11.70;1.80;;;;;;;7.33;87.48;102217.66;5049431;28;20482;-46
2022/03/17 04:30:23;;;;;;;15.23;2.13;;;;;;;7.35;87.97;102223.72;5050043;28;20083;-46
2022/03/17 04:32:49;;;;;;;22.17;2.65;;;;;;;7.35;87.34;102238.97;5049757;28;20094;-44
2022/03/17 04:35:14;;;;;;;15.75;1.67;;;;;;;7.29;87.11;102242.13;5050004;28;20028;-45
2022/03/17 04:37:40;;;;;;;16.25;2.00;;;;;;;7.29;87.09;102239.44;5049815;28;20464;-47
2022/03/17 04:40:05;;;;;;;15.75;1.83;;;;;;;7.29;86.97;102258.19;5050203;28;20029;-46
2022/03/17 04:42:31;;;;;;;23.20;2.40;;;;;;;7.29;88.01;102256.34;5049411;28;20033;-46
2022/03/17 04:44:56;;;;;;;17.63;2.60;;;;;;;7.31;88.26;102283.03;5050075;28;20046;-45
2022/03/17 04:47:22;;;;;;;23.52;2.88;;;;;;;7.32;87.11;102279.34;5049613;28;20094;-47
2022/03/17 04:49:49;;;;;;;16.75;2.67;;;;;;;7.29;86.42;102280.47;5049012;28;20035;-45
2022/03/17 04:54:58;;;;;;;29.48;2.60;;;;;;;7.27;85.74;102306.53;5043026;28;20427;-46
2022/03/17 04:57:25;;;;;;;19.70;2.55;;;;;;;7.28;86.56;102304.69;5049475;28;20127;-47
2022/03/17 04:59:51;;;;;;;14.23;1.88;;;;;;;7.28;86.51;102326.13;5048685;28;20396;-46
2022/03/17 05:02:16;;;;;;;25.85;2.72;;;;;;;7.26;85.80;102327.09;5048356;28;20032;-47
2022/03/17 05:04:41;;;;;;;22.85;3.38;;;;;;;7.27;85.00;102336.00;5050546;28;20048;-45
2022/03/17 05:07:07;;;;;;;17.23;2.25;;;;;;;7.31;85.29;102347.28;5050178;28;20037;-44
2022/03/17 05:09:32;;;;;;;24.67;3.20;;;;;;;7.31;84.80;102358.00;5050903;28;20036;-48
2022/03/17 05:11:58;;;;;;;22.80;3.03;;;;;;;7.29;85.02;102365.31;5050161;28;20043;-46
2022/03/17 05:14:24;;;;;;;16.85;1.95;;;;;;;7.30;85.70;102369.72;5049343;28;20056;-45
2022/03/17 05:16:49;;;;;;;20.63;2.03;;;;;;;7.34;85.64;102368.47;5048024;28;20116;-45
2022/03/17 05:19:14;;;;;;;20.13;2.08;;;;;;;7.31;85.55;102371.41;5048532;28;20079;-45
2022/03/17 05:21:39;;;;;;;15.48;2.13;;;;;;;7.33;85.15;102382.84;5050484;28;20041;-46
2022/03/17 05:24:05;;;;;;;19.70;1.85;;;;;;;7.35;84.64;102392.47;5050364;28;20033;-46
2022/03/17 05:26:30;;;;;;;25.13;2.95;;;;;;;7.31;84.68;102398.19;5050656;28;20045;-46
2022/03/17 05:28:56;;;;;;;22.15;2.58;;;;;;;7.31;85.54;102408.91;5052635;28;20032;-47
2022/03/17 05:31:21;;;;;;;21.55;2.22;;;;;;;7.36;86.12;102409.38;5050964;28;20045;-45
2022/03/17 05:33:46;;;;;;;22.60;3.35;;;;;;;7.31;85.59;102404.38;5023266;28;20102;-44
2022/03/17 05:36:12;;;;;;;25.92;2.47;;;;;;;7.29;85.93;102416.19;5036101;28;20103;-44
2022/03/17 05:38:37;;;;;;;36.30;2.92;;;;;;;7.24;86.09;102417.44;5042676;28;20036;-45
2022/03/17 05:41:03;;;;;;;29.13;3.15;;;;;;;7.20;86.00;102421.31;5043290;28;20111;-45
2022/03/17 05:43:29;;;;;;;37.50;4.30;;;;;;;7.26;86.23;102430.69;5041541;28;20356;-47
2022/03/17 05:45:54;;;;;;;30.70;3.15;;;;;;;7.28;85.72;102441.28;5042852;28;20507;-47
2022/03/17 05:48:19;;;;;;;42.08;3.78;;;;;;;7.34;85.89;102452.34;5043555;28;20025;-47
2022/03/17 05:50:45;;;;;;;23.98;2.30;;;;;;;7.34;85.75;102452.34;5041105;28;20045;-46
2022/03/17 05:53:10;;;;;;;31.50;2.70;;;;;;;7.35;84.82;102458.59;5042220;28;20028;-43
2022/03/17 05:55:36;;;;;;;20.42;3.67;;;;;;;7.37;83.99;102461.97;5044633;28;20025;-47
2022/03/17 05:58:02;;;;;;;16.77;2.10;;;;;;;7.40;84.22;102465.28;5049720;28;20032;-46
2022/03/17 06:00:28;;;;;;;28.80;3.60;;;;;;;7.43;84.45;102469.53;5049382;28;20025;-48
2022/03/17 06:02:54;;;;;;;36.47;2.45;;;;;;;7.39;83.77;102468.06;5049266;28;20396;-46
2022/03/17 06:05:20;;;;;;;17.02;2.13;;;;;;;7.32;83.87;102477.53;5048093;28;20021;-46
2022/03/17 06:07:50;;;;;;;24.05;2.95;;;;;;;7.35;83.37;102471.97;5047516;28;20044;-46
2022/03/17 06:10:21;;;;;;;27.02;2.65;;;;;;;7.39;83.16;102492.16;5047042;28;20021;-49
2022/03/17 06:12:48;;;;;;;20.95;2.20;;;;;;;7.39;83.24;102500.19;5047906;28;20043;-46
2022/03/17 06:15:14;;;;;;;25.33;2.72;;;;;;;7.36;83.19;102503.13;5049142;28;20028;-48
2022/03/17 06:17:41;;;;;;;14.25;2.25;;;;;;;7.34;83.48;102507.75;5034893;28;20033;-46
2022/03/17 06:20:15;;;;;;;26.48;2.50;;;;;;;7.33;84.16;102522.13;5050217;28;20329;-46
2022/03/17 06:22:42;;;;;;;16.40;2.58;;;;;;;7.33;84.68;102528.31;5047921;28;20186;-46
2022/03/17 06:25:09;;;;;;;25.30;2.90;;;;;;;7.33;84.52;102535.50;5047753;28;20488;-46
2022/03/17 06:27:34;;;;;;;25.73;2.95;;;;;;;7.34;84.72;102546.09;5048794;28;20479;-45
2022/03/17 06:30:04;;;;;;;31.73;5.40;;;;;;;7.34;85.23;102545.25;5046701;28;20059;-46
2022/03/17 06:32:30;;;;;;;27.13;5.07;;;;;;;7.39;84.78;102549.25;5046288;28;20298;-45
2022/03/17 06:34:55;;;;;;;29.00;3.25;;;;;;;7.38;84.83;102546.72;5049364;28;20048;-47
2022/03/17 06:37:21;;;;;;;27.63;2.80;;;;;;;7.40;85.03;102553.66;5048850;28;20041;-44
2022/03/17 06:39:46;;;;;;;38.65;3.88;;;;;;;7.36;84.38;102551.34;5048362;28;20499;-46
2022/03/17 06:42:12;;;;;;;21.75;2.40;;;;;;;7.41;84.09;102557.19;5048887;28;20025;-46
2022/03/17 06:44:37;;;;;;;23.10;2.22;;;;;;;7.41;83.89;102559.88;5048642;28;20047;-46
2022/03/17 06:47:02;;;;;;;23.27;2.78;;;;;;;7.44;83.35;102578.38;5049505;28;20151;-47
2022/03/17 06:49:28;;;;;;;17.63;2.90;;;;;;;7.48;83.64;102579.88;5049079;28;20098;-48
2022/03/17 06:51:53;;;;;;;34.88;2.50;;;;;;;7.52;82.40;102589.34;5047961;28;20028;-45
2022/03/17 06:54:18;;;;;;;22.77;1.98;;;;;;;7.52;81.73;102592.03;5049735;28;20485;-47
2022/03/17 06:56:44;;;;;;;20.52;3.53;;;;;;;7.56;81.17;102609.59;5050836;28;20021;-47
2022/03/17 06:59:09;;;;;;;17.05;2.50;;;;;;;7.58;80.65;102607.66;5044170;28;20057;-46
2022/03/17 07:01:34;;;;;;;23.13;2.15;;;;;;;7.60;80.51;102621.75;5050190;28;20542;-47
2022/03/17 07:03:59;;;;;;;18.38;2.05;;;;;;;7.56;78.64;102614.09;5050440;28;20033;-46
2022/03/17 07:06:25;;;;;;;16.55;2.42;;;;;;;7.61;76.84;102618.13;5048874;28;20035;-49
2022/03/17 07:08:50;;;;;;;21.77;2.30;;;;;;;7.63;77.38;102624.19;5048727;28;20049;-48
2022/03/17 07:11:15;;;;;;;21.08;2.08;;;;;;;7.59;76.90;102636.16;5048693;28;20040;-46
2022/03/17 07:13:41;;;;;;;16.77;1.90;;;;;;;7.61;77.27;102628.84;5048361;28;20029;-46
2022/03/17 07:16:06;;;;;;;16.13;2.03;;;;;;;7.68;77.02;102645.28;5048320;28;20541;-47
2022/03/17 07:18:31;;;;;;;25.92;2.47;;;;;;;7.65;77.16;102649.06;5047931;28;20112;-47
2022/03/17 07:20:59;;;;;;;18.05;2.42;;;;;;;7.65;77.96;102640.16;5048076;28;20068;-46
2022/03/17 07:23:24;;;;;;;13.55;1.90;;;;;;;7.66;77.89;102655.25;5047000;28;20136;-44
2022/03/17 07:25:49;;;;;;;19.95;2.42;;;;;;;7.61;78.02;102655.66;5047346;28;20727;-42
2022/03/17 07:28:15;;;;;;;22.65;2.28;;;;;;;7.63;77.46;102658.19;5047209;28;20216;-42
2022/03/17 07:30:41;;;;;;;21.63;2.80;;;;;;;7.59;77.79;102659.41;5047113;28;20067;-43
2022/03/17 07:33:06;;;;;;;20.02;2.70;;;;;;;7.58;78.20;102663.94;5046265;28;20052;-42
2022/03/17 07:35:33;;;;;;;18.38;1.85;;;;;;;7.58;78.47;102677.31;5047954;28;20431;-43
2022/03/17 07:37:58;;;;;;;20.70;2.35;;;;;;;7.54;78.08;102675.84;5047899;28;20059;-42
2022/03/17 07:40:25;;;;;;;9.23;2.08;;;;;;;7.55;76.35;102677.53;5047432;28;20049;-42
2022/03/17 07:42:50;;;;;;;23.15;2.78;;;;;;;7.54;76.19;102680.34;5047142;28;20495;-43
2022/03/17 07:45:15;;;;;;;14.93;1.60;;;;;;;7.51;77.27;102697.50;5046646;28;20071;-42
2022/03/17 07:47:48;;;;;;;9.68;1.27;;;;;;;7.53;76.39;102697.38;5046971;28;20074;-41
2022/03/17 07:50:14;;;;;;;17.48;1.60;;;;;;;7.53;74.60;102706.28;5047336;28;20484;-41
2022/03/17 07:52:40;;;;;;;16.48;2.03;;;;;;;7.57;74.29;102706.91;5047965;28;20377;-41
2022/03/17 07:55:06;;;;;;;14.80;2.03;;;;;;;7.61;73.91;102713.72;5043098;28;20024;-41
2022/03/17 07:57:31;;;;;;;11.63;1.80;;;;;;;7.73;73.85;102720.00;5048087;28;20025;-41
2022/03/17 07:59:57;;;;;;;14.25;1.92;;;;;;;7.76;73.55;102719.75;5041619;28;20487;-39
2022/03/17 08:02:23;;;;;;;17.33;2.08;;;;;;;7.97;72.47;102734.16;5041663;28;20029;-43
2022/03/17 08:04:50;;;;;;;9.05;1.90;;;;;;;8.69;70.03;102739.28;5050405;28;20112;-43
2022/03/17 08:07:15;;;;;;;11.73;1.50;;;;;;;9.98;68.83;102750.09;5048982;28;20174;-42
2022/03/17 08:09:41;;;;;;;8.23;1.70;;;;;;;11.33;65.67;102745.41;5050151;28;20111;-42
2022/03/17 08:12:06;;;;;;;7.10;1.67;;;;;;;12.83;59.29;102760.91;5050311;28;20033;-42
2022/03/17 08:14:32;;;;;;;9.00;1.63;;;;;;;13.95;54.54;102767.81;5050334;28;20083;-42
2022/03/17 08:16:57;;;;;;;7.57;1.80;;;;;;;14.59;50.87;102772.00;5050124;28;20017;-45
2022/03/17 08:19:22;;;;;;;15.70;1.95;;;;;;;15.63;49.00;102775.38;5050156;28;20032;-44
2022/03/17 08:21:48;;;;;;;9.07;1.48;;;;;;;15.25;48.88;102785.81;5050386;28;20459;-44
2022/03/17 08:24:13;;;;;;;15.18;1.77;;;;;;;14.85;50.61;102780.09;5049409;28;20732;-43
2022/03/17 08:26:39;;;;;;;16.33;2.60;;;;;;;13.75;51.99;102786.94;5049967;28;20025;-43
2022/03/17 08:29:05;;;;;;;15.23;2.20;;;;;;;13.09;54.83;102798.91;5049864;28;20025;-43
2022/03/17 08:31:31;;;;;;;9.82;1.80;;;;;;;12.46;55.77;102791.47;5049879;28;20040;-44
2022/03/17 08:33:56;;;;;;;23.60;3.33;;;;;;;12.00;58.55;102801.22;5046629;28;20028;-43
2022/03/17 08:36:25;;;;;;;10.88;2.90;;;;;;;12.10;58.63;102805.78;5049452;28;20095;-42
2022/03/17 08:38:51;;;;;;;16.23;2.30;;;;;;;12.57;57.00;102819.31;5049702;28;20044;-43
2022/03/17 08:41:18;;;;;;;22.38;3.13;;;;;;;13.05;57.43;102824.53;5050064;28;20423;-43
2022/03/17 08:43:43;;;;;;;15.80;2.40;;;;;;;13.42;54.80;102828.19;5049979;28;20041;-44
2022/03/17 08:51:36;;;;;;;14.88;2.38;;;;;;;13.87;53.45;102846.25;5049251;28;20094;-44
2022/03/17 08:54:01;;;;;;;11.32;2.17;;;;;;;13.93;53.00;102842.91;5048024;28;20207;-44
2022/03/17 08:56:28;;;;;;;11.98;2.15;;;;;;;14.42;51.48;102851.44;5050072;28;20041;-43
2022/03/17 08:58:54;;;;;;;10.88;2.00;;;;;;;15.10;49.92;102856.13;5048332;28;20075;-43
2022/03/17 09:01:19;;;;;;;9.88;2.13;;;;;;;16.05;46.86;102864.88;5048896;28;20086;-48
2022/03/17 09:03:45;;;;;;;8.77;2.20;;;;;;;16.49;45.80;102874.53;5053844;28;20116;-47
2022/03/17 09:06:13;;;;;;;8.32;2.60;;;;;;;17.20;45.64;102879.16;5053790;28;20025;-48
2022/03/17 09:08:41;;;;;;;10.48;2.10;;;;;;;17.18;43.32;102872.19;5048638;28;20053;-48
2022/03/17 09:11:07;;;;;;;12.35;4.20;;;;;;;16.48;44.32;102883.69;5053923;28;20120;-48
2022/03/17 09:13:32;;;;;;;14.32;2.58;;;;;;;16.83;44.76;102883.34;5053593;28;20119;-47
2022/03/17 09:15:58;;;;;;;9.35;2.13;;;;;;;17.04;42.54;102890.09;5053117;28;20027;-47
2022/03/17 09:18:23;;;;;;;9.65;2.00;;;;;;;17.06;43.62;102893.47;5052422;28;20514;-48
2022/03/17 09:20:48;;;;;;;14.05;2.78;;;;;;;17.19;43.64;102892.91;5053844;28;20100;-48
2022/03/17 09:23:14;;;;;;;13.77;2.53;;;;;;;16.79;43.72;102897.47;5053096;28;20132;-48
2022/03/17 09:25:40;;;;;;;11.98;2.38;;;;;;;16.16;46.59;102907.97;5053509;28;20451;-47
2022/03/17 09:28:06;;;;;;;17.08;2.83;;;;;;;15.47;46.80;102917.31;5051464;28;20033;-49
2022/03/17 09:30:31;;;;;;;12.95;2.40;;;;;;;14.69;50.36;102929.94;5053250;28;20396;-47
2022/03/17 09:32:59;;;;;;;11.95;2.35;;;;;;;14.20;51.00;102934.91;5052272;28;20064;-47
2022/03/17 09:35:25;;;;;;;14.35;3.28;;;;;;;13.28;53.88;102935.88;5051962;28;20029;-47
2022/03/17 09:37:50;;;;;;;20.52;3.10;;;;;;;12.94;54.83;102939.09;5053450;28;20025;-46
2022/03/17 09:40:16;;;;;;;13.88;2.88;;;;;;;12.48;56.75;102946.13;5052436;28;20041;-46
2022/03/17 09:42:42;;;;;;;14.70;2.90;;;;;;;12.30;57.68;102953.25;5053216;28;20249;-48
2022/03/17 09:45:08;;;;;;;23.73;3.05;;;;;;;12.32;58.55;102961.19;5052895;28;20096;-47
2022/03/17 09:47:36;;;;;;;19.08;3.08;;;;;;;12.12;59.74;102965.75;5051791;28;20295;-48
2022/03/17 09:50:03;;;;;;;18.92;3.67;;;;;;;11.68;59.85;102973.25;5053189;28;20414;-47
2022/03/17 09:52:29;;;;;;;15.60;2.95;;;;;;;11.99;59.73;102964.16;5053016;28;20475;-51
2022/03/17 09:54:55;;;;;;;12.35;2.70;;;;;;;12.40;58.08;102980.22;5050879;28;20033;-49
2022/03/17 09:57:20;;;;;;;18.40;3.10;;;;;;;12.77;56.59;102983.09;5052480;28;20131;-47
2022/03/17 09:59:48;;;;;;;15.02;3.00;;;;;;;13.16;56.47;102983.88;5050235;28;20028;-47
2022/03/17 10:02:17;;;;;;;;;;;;;;;13.30;56.26;102985.28;5038039;28;20041;-49
2022/03/17 10:04:46;;;;;;;12.98;3.10;;;;;;;13.35;54.16;102987.53;5053773;28;20126;-48
2022/03/17 10:07:12;;;;;;;9.93;2.88;;;;;;;13.08;55.11;102996.38;5052331;28;20049;-48
2022/03/17 10:09:37;;;;;;;10.77;2.80;;;;;;;12.65;56.80;102997.72;5052264;28;20552;-47
2022/03/17 10:12:06;;;;;;;18.63;3.75;;;;;;;12.56;56.52;102990.47;5052239;28;20025;-47
2022/03/17 10:14:38;;;;;;;14.38;3.88;;;;;;;12.33;59.57;103001.56;5052046;28;20472;-48
2022/03/17 10:17:05;;;;;;;8.25;2.72;;;;;;;12.77;59.00;103010.09;5051670;28;20111;-45
2022/03/17 10:19:34;;;;;;;13.23;3.33;;;;;;;13.62;55.63;103024.59;5051477;28;20407;-47
2022/03/17 10:22:10;;;;;;;9.38;2.75;;;;;;;13.77;55.90;103031.22;5052445;28;20100;-45
2022/03/17 10:24:36;;;;;;;13.48;2.85;;;;;;;14.06;53.66;103041.03;5051694;28;20029;-49
2022/03/17 10:27:03;;;;;;;12.77;2.58;;;;;;;14.52;52.48;103041.88;5052434;28;20065;-46
2022/03/17 10:29:29;;;;;;;14.85;2.65;;;;;;;14.78;52.28;103057.41;5051729;28;20078;-47
2022/03/17 10:32:05;;;;;;;16.35;3.03;;;;;;;14.26;52.83;103058.84;5048762;28;20547;-44
2022/03/17 10:34:33;;;;;;;19.10;3.47;;;;;;;13.75;54.35;103060.28;5050679;28;20021;-44
2022/03/17 10:37:12;;;;;;;;;;;;;;;13.43;55.04;103065.22;5049270;28;20376;-43
2022/03/17 10:40:01;;;;;;;12.75;2.92;;;;;;;12.86;55.81;103074.09;5051104;28;19920;-46
2022/03/17 10:42:28;;;;;;;14.70;2.22;;;;;;;12.45;56.62;103067.97;5051340;28;20503;-44
2022/03/17 10:44:55;;;;;;;14.02;3.00;;;;;;;12.00;59.04;103087.28;5048719;28;20059;-45
2022/03/17 10:47:31;;;;;;;14.15;2.55;;;;;;;11.97;58.36;103082.16;5051776;28;20017;-47
2022/03/17 10:50:03;;;;;;;12.27;2.75;;;;;;;12.06;58.75;103089.47;5051924;28;20462;-47
2022/03/17 10:53:00;;;;;;;18.00;2.13;;;;;;;12.30;57.80;103086.41;5051285;28;20159;-46
2022/03/17 10:55:26;;;;;;;;;;;;;;;12.26;58.49;103092.22;5048649;28;20104;-47
2022/03/17 10:57:54;;;;;;;13.25;2.70;;;;;;;12.60;57.91;103090.00;5050719;28;20007;-47
2022/03/17 11:00:21;;;;;;;18.90;2.55;;;;;;;13.12;56.07;103092.44;5048803;28;20116;-49
2022/03/17 11:02:49;;;;;;;13.18;2.58;;;;;;;13.61;54.84;103094.09;5051989;28;20025;-45
2022/03/17 11:05:17;;;;;;;11.90;2.38;;;;;;;13.96;53.77;103086.28;5052254;28;20040;-47
2022/03/17 11:07:44;;;;;;;15.95;2.13;;;;;;;14.42;52.44;103101.53;5051284;28;20037;-46
2022/03/17 11:10:10;;;;;;;11.75;3.13;;;;;;;14.60;51.70;103098.03;5051454;28;20116;-46
2022/03/17 11:12:37;;;;;;;10.75;2.40;;;;;;;14.46;52.21;103100.25;5050286;28;20025;-47
2022/03/17 11:15:02;;;;;;;14.15;2.30;;;;;;;14.65;52.12;103101.16;5051285;28;20029;-47
2022/03/17 11:17:36;;;;;;;16.10;2.70;;;;;;;15.24;49.65;103115.06;5051418;28;20029;-47
2022/03/17 11:20:09;;;;;;;17.60;2.63;;;;;;;14.96;51.40;103107.03;5051977;28;20033;-47
2022/03/17 11:22:36;;;;;;;15.95;2.45;;;;;;;15.11;49.89;103102.78;5050416;28;20104;-46
2022/03/17 11:25:28;;;;;;;9.45;2.40;;;;;;;15.07;48.61;103101.38;5049929;28;20147;-45
2022/03/17 11:27:58;;;;;;;13.15;2.20;;;;;;;15.38;46.62;103111.78;5050789;28;20108;-47
2022/03/17 11:30:29;;;;;;;18.45;2.35;;;;;;;15.14;47.87;103112.47;5051322;28;20044;-47
2022/03/17 11:32:56;;;;;;;9.02;2.45;;;;;;;15.11;49.35;103121.75;5051844;28;20060;-44
2022/03/17 11:35:32;;;;;;;13.02;1.98;;;;;;;15.61;47.39;103116.69;5048775;28;20072;-46
2022/03/17 11:38:17;;;;;;;8.52;1.80;;;;;;;15.78;45.31;103123.97;5050296;28;20165;-45